sensor_id;sensor_type;location;lat;lon;timestamp;P1;durP1;ratioP1;P2;durP2;ratioP2
7669;SDS011;3877;42.562;27.636;2023-08-08T00:00:59;5.45;;;4.90;;
7669;SDS011;3877;42.562;27.636;2023-08-08T00:03:27;5.82;;;4.55;;
7669;SDS011;3877;42.562;27.636;2023-08-08T00:05:54;5.93;;;4.80;;
7669;SDS011;3877;42.562;27.636;2023-08-08T00:08:22;5.38;;;4.53;;
7669;SDS011;3877;42.562;27.636;2023-08-08T00:10:49;4.75;;;4.28;;
7669;SDS011;3877;42.562;27.636;2023-08-08T00:13:18;5.22;;;3.58;;
7669;SDS011;3877;42.562;27.636;2023-08-08T00:15:45;3.45;;;3.10;;
7669;SDS011;3877;42.562;27.636;2023-08-08T00:18:13;4.93;;;2.67;;
7669;SDS011;3877;42.562;27.636;2023-08-08T00:20:40;4.00;;;2.40;;
7669;SDS011;3877;42.562;27.636;2023-08-08T00:23:08;2.40;;;2.20;;
7669;SDS011;3877;42.562;27.636;2023-08-08T00:25:36;2.08;;;1.83;;
7669;SDS011;3877;42.562;27.636;2023-08-08T00:28:03;1.70;;;1.60;;
7669;SDS011;3877;42.562;27.636;2023-08-08T00:30:32;3.03;;;1.65;;
7669;SDS011;3877;42.562;27.636;2023-08-08T00:32:59;2.13;;;1.83;;
7669;SDS011;3877;42.562;27.636;2023-08-08T00:35:26;2.58;;;1.90;;
7669;SDS011;3877;42.562;27.636;2023-08-08T00:37:54;3.13;;;1.58;;
7669;SDS011;3877;42.562;27.636;2023-08-08T00:40:21;1.85;;;1.67;;
7669;SDS011;3877;42.562;27.636;2023-08-08T00:42:47;2.00;;;1.70;;
7669;SDS011;3877;42.562;27.636;2023-08-08T00:45:14;1.77;;;1.58;;
7669;SDS011;3877;42.562;27.636;2023-08-08T00:47:43;3.97;;;1.67;;
7669;SDS011;3877;42.562;27.636;2023-08-08T00:50:11;2.80;;;1.73;;
7669;SDS011;3877;42.562;27.636;2023-08-08T00:52:39;2.75;;;1.70;;
7669;SDS011;3877;42.562;27.636;2023-08-08T00:55:09;2.78;;;1.90;;
7669;SDS011;3877;42.562;27.636;2023-08-08T00:57:37;2.13;;;1.83;;
7669;SDS011;3877;42.562;27.636;2023-08-08T01:00:05;1.75;;;1.60;;
7669;SDS011;3877;42.562;27.636;2023-08-08T01:02:36;1.77;;;1.67;;
7669;SDS011;3877;42.562;27.636;2023-08-08T01:05:05;1.67;;;1.55;;
7669;SDS011;3877;42.562;27.636;2023-08-08T01:07:36;1.77;;;1.40;;
7669;SDS011;3877;42.562;27.636;2023-08-08T01:10:08;7.43;;;1.80;;
7669;SDS011;3877;42.562;27.636;2023-08-08T01:12:40;2.45;;;1.60;;
7669;SDS011;3877;42.562;27.636;2023-08-08T01:15:10;3.83;;;1.50;;
7669;SDS011;3877;42.562;27.636;2023-08-08T01:17:40;5.93;;;1.88;;
7669;SDS011;3877;42.562;27.636;2023-08-08T01:20:11;6.50;;;1.98;;
7669;SDS011;3877;42.562;27.636;2023-08-08T01:22:43;5.45;;;1.77;;
7669;SDS011;3877;42.562;27.636;2023-08-08T01:25:19;6.35;;;1.77;;
7669;SDS011;3877;42.562;27.636;2023-08-08T01:27:47;4.80;;;1.80;;
7669;SDS011;3877;42.562;27.636;2023-08-08T01:30:15;2.17;;;1.70;;
7669;SDS011;3877;42.562;27.636;2023-08-08T01:32:42;2.30;;;1.80;;
7669;SDS011;3877;42.562;27.636;2023-08-08T01:35:10;6.00;;;1.95;;
7669;SDS011;3877;42.562;27.636;2023-08-08T01:37:39;5.82;;;1.95;;
7669;SDS011;3877;42.562;27.636;2023-08-08T01:40:11;6.55;;;2.15;;
7669;SDS011;3877;42.562;27.636;2023-08-08T01:42:43;3.00;;;2.08;;
7669;SDS011;3877;42.562;27.636;2023-08-08T01:45:14;2.75;;;2.00;;
7669;SDS011;3877;42.562;27.636;2023-08-08T01:47:42;4.18;;;2.17;;
7669;SDS011;3877;42.562;27.636;2023-08-08T01:50:09;3.45;;;1.75;;
7669;SDS011;3877;42.562;27.636;2023-08-08T01:52:37;3.25;;;2.10;;
7669;SDS011;3877;42.562;27.636;2023-08-08T01:55:04;1.63;;;1.40;;
7669;SDS011;3877;42.562;27.636;2023-08-08T01:57:32;1.63;;;1.48;;
7669;SDS011;3877;42.562;27.636;2023-08-08T02:00:01;1.92;;;1.70;;
7669;SDS011;3877;42.562;27.636;2023-08-08T02:02:29;2.38;;;1.70;;
7669;SDS011;3877;42.562;27.636;2023-08-08T02:04:57;5.85;;;1.98;;
7669;SDS011;3877;42.562;27.636;2023-08-08T02:07:24;4.45;;;2.08;;
7669;SDS011;3877;42.562;27.636;2023-08-08T02:09:51;5.00;;;1.98;;
7669;SDS011;3877;42.562;27.636;2023-08-08T02:12:19;2.45;;;1.77;;
7669;SDS011;3877;42.562;27.636;2023-08-08T02:14:46;4.28;;;1.95;;
7669;SDS011;3877;42.562;27.636;2023-08-08T02:17:15;8.10;;;2.00;;
7669;SDS011;3877;42.562;27.636;2023-08-08T02:19:42;2.05;;;1.85;;
7669;SDS011;3877;42.562;27.636;2023-08-08T02:22:09;3.10;;;2.28;;
7669;SDS011;3877;42.562;27.636;2023-08-08T02:24:36;3.03;;;2.20;;
7669;SDS011;3877;42.562;27.636;2023-08-08T02:27:04;3.65;;;2.17;;
7669;SDS011;3877;42.562;27.636;2023-08-08T02:29:31;3.42;;;1.85;;
7669;SDS011;3877;42.562;27.636;2023-08-08T02:31:58;4.28;;;2.20;;
7669;SDS011;3877;42.562;27.636;2023-08-08T02:34:27;3.03;;;1.98;;
7669;SDS011;3877;42.562;27.636;2023-08-08T02:36:54;3.17;;;2.05;;
7669;SDS011;3877;42.562;27.636;2023-08-08T02:39:22;2.58;;;1.80;;
7669;SDS011;3877;42.562;27.636;2023-08-08T02:41:49;2.72;;;1.90;;
7669;SDS011;3877;42.562;27.636;2023-08-08T02:44:16;3.15;;;1.95;;
7669;SDS011;3877;42.562;27.636;2023-08-08T02:46:45;2.00;;;1.70;;
7669;SDS011;3877;42.562;27.636;2023-08-08T02:49:12;3.05;;;2.10;;
7669;SDS011;3877;42.562;27.636;2023-08-08T02:51:41;2.25;;;1.88;;
7669;SDS011;3877;42.562;27.636;2023-08-08T02:54:08;5.40;;;2.10;;
7669;SDS011;3877;42.562;27.636;2023-08-08T02:56:35;3.13;;;2.10;;
7669;SDS011;3877;42.562;27.636;2023-08-08T02:59:02;4.50;;;1.88;;
7669;SDS011;3877;42.562;27.636;2023-08-08T03:01:30;2.60;;;1.80;;
7669;SDS011;3877;42.562;27.636;2023-08-08T03:03:57;4.47;;;2.05;;
7669;SDS011;3877;42.562;27.636;2023-08-08T03:06:24;3.75;;;2.30;;
7669;SDS011;3877;42.562;27.636;2023-08-08T03:08:54;1.95;;;1.60;;
7669;SDS011;3877;42.562;27.636;2023-08-08T03:11:21;3.50;;;1.80;;
7669;SDS011;3877;42.562;27.636;2023-08-08T03:13:49;2.22;;;1.90;;
7669;SDS011;3877;42.562;27.636;2023-08-08T03:16:16;2.95;;;2.05;;
7669;SDS011;3877;42.562;27.636;2023-08-08T03:18:43;3.78;;;1.88;;
7669;SDS011;3877;42.562;27.636;2023-08-08T03:21:10;2.78;;;1.80;;
7669;SDS011;3877;42.562;27.636;2023-08-08T03:23:38;2.50;;;1.80;;
7669;SDS011;3877;42.562;27.636;2023-08-08T03:26:06;3.42;;;1.80;;
7669;SDS011;3877;42.562;27.636;2023-08-08T03:28:34;2.28;;;1.85;;
7669;SDS011;3877;42.562;27.636;2023-08-08T03:31:02;4.75;;;1.90;;
7669;SDS011;3877;42.562;27.636;2023-08-08T03:33:29;2.42;;;1.80;;
7669;SDS011;3877;42.562;27.636;2023-08-08T03:35:57;2.47;;;1.80;;
7669;SDS011;3877;42.562;27.636;2023-08-08T03:38:24;2.33;;;1.70;;
7669;SDS011;3877;42.562;27.636;2023-08-08T03:40:51;1.70;;;1.58;;
7669;SDS011;3877;42.562;27.636;2023-08-08T03:43:22;2.78;;;1.80;;
7669;SDS011;3877;42.562;27.636;2023-08-08T03:45:51;2.00;;;1.80;;
7669;SDS011;3877;42.562;27.636;2023-08-08T03:48:18;2.75;;;1.80;;
7669;SDS011;3877;42.562;27.636;2023-08-08T03:50:45;2.22;;;1.67;;
7669;SDS011;3877;42.562;27.636;2023-08-08T03:53:13;1.67;;;1.40;;
7669;SDS011;3877;42.562;27.636;2023-08-08T03:55:40;3.00;;;1.70;;
7669;SDS011;3877;42.562;27.636;2023-08-08T03:58:07;1.95;;;1.60;;
7669;SDS011;3877;42.562;27.636;2023-08-08T04:00:36;2.25;;;1.98;;
7669;SDS011;3877;42.562;27.636;2023-08-08T04:03:04;3.08;;;1.88;;
7669;SDS011;3877;42.562;27.636;2023-08-08T04:05:31;3.83;;;1.80;;
7669;SDS011;3877;42.562;27.636;2023-08-08T04:07:59;2.97;;;1.50;;
7669;SDS011;3877;42.562;27.636;2023-08-08T04:10:26;3.55;;;1.80;;
7669;SDS011;3877;42.562;27.636;2023-08-08T04:12:53;2.20;;;1.88;;
7669;SDS011;3877;42.562;27.636;2023-08-08T04:15:21;15.20;;;2.08;;
7669;SDS011;3877;42.562;27.636;2023-08-08T04:17:49;3.40;;;1.60;;
7669;SDS011;3877;42.562;27.636;2023-08-08T04:20:16;3.13;;;1.83;;
7669;SDS011;3877;42.562;27.636;2023-08-08T04:22:44;3.22;;;1.50;;
7669;SDS011;3877;42.562;27.636;2023-08-08T04:25:11;3.38;;;1.77;;
7669;SDS011;3877;42.562;27.636;2023-08-08T04:27:38;1.98;;;1.42;;
7669;SDS011;3877;42.562;27.636;2023-08-08T04:30:06;4.72;;;1.90;;
7669;SDS011;3877;42.562;27.636;2023-08-08T04:32:34;2.03;;;1.55;;
7669;SDS011;3877;42.562;27.636;2023-08-08T04:35:03;2.15;;;1.60;;
7669;SDS011;3877;42.562;27.636;2023-08-08T04:37:30;1.80;;;1.55;;
7669;SDS011;3877;42.562;27.636;2023-08-08T04:39:58;2.10;;;1.50;;
7669;SDS011;3877;42.562;27.636;2023-08-08T04:42:25;2.45;;;1.60;;
7669;SDS011;3877;42.562;27.636;2023-08-08T04:44:52;1.60;;;1.50;;
7669;SDS011;3877;42.562;27.636;2023-08-08T04:47:20;1.88;;;1.60;;
7669;SDS011;3877;42.562;27.636;2023-08-08T04:49:48;2.20;;;1.70;;
7669;SDS011;3877;42.562;27.636;2023-08-08T04:52:17;3.65;;;1.90;;
7669;SDS011;3877;42.562;27.636;2023-08-08T04:54:44;1.98;;;1.70;;
7669;SDS011;3877;42.562;27.636;2023-08-08T04:57:12;2.85;;;1.50;;
7669;SDS011;3877;42.562;27.636;2023-08-08T04:59:39;2.10;;;1.90;;
7669;SDS011;3877;42.562;27.636;2023-08-08T05:02:07;3.60;;;1.67;;
7669;SDS011;3877;42.562;27.636;2023-08-08T05:04:35;3.88;;;1.65;;
7669;SDS011;3877;42.562;27.636;2023-08-08T05:07:02;1.50;;;1.40;;
7669;SDS011;3877;42.562;27.636;2023-08-08T05:09:31;5.20;;;1.80;;
7669;SDS011;3877;42.562;27.636;2023-08-08T05:11:58;1.48;;;1.38;;
7669;SDS011;3877;42.562;27.636;2023-08-08T05:14:25;2.60;;;1.70;;
7669;SDS011;3877;42.562;27.636;2023-08-08T05:16:52;2.70;;;1.77;;
7669;SDS011;3877;42.562;27.636;2023-08-08T05:19:20;2.95;;;1.70;;
7669;SDS011;3877;42.562;27.636;2023-08-08T05:21:49;3.15;;;1.80;;
7669;SDS011;3877;42.562;27.636;2023-08-08T05:24:16;2.38;;;1.60;;
7669;SDS011;3877;42.562;27.636;2023-08-08T05:26:45;3.60;;;1.83;;
7669;SDS011;3877;42.562;27.636;2023-08-08T05:29:12;2.90;;;1.85;;
7669;SDS011;3877;42.562;27.636;2023-08-08T05:31:39;3.53;;;1.77;;
7669;SDS011;3877;42.562;27.636;2023-08-08T05:34:07;7.35;;;1.65;;
7669;SDS011;3877;42.562;27.636;2023-08-08T05:36:34;3.47;;;1.42;;
7669;SDS011;3877;42.562;27.636;2023-08-08T05:39:02;2.65;;;1.50;;
7669;SDS011;3877;42.562;27.636;2023-08-08T05:41:29;3.55;;;1.55;;
7669;SDS011;3877;42.562;27.636;2023-08-08T05:43:58;2.38;;;1.50;;
7669;SDS011;3877;42.562;27.636;2023-08-08T05:46:25;4.53;;;1.67;;
7669;SDS011;3877;42.562;27.636;2023-08-08T05:48:52;5.85;;;1.58;;
7669;SDS011;3877;42.562;27.636;2023-08-08T05:51:20;5.28;;;1.65;;
7669;SDS011;3877;42.562;27.636;2023-08-08T05:53:47;1.77;;;1.50;;
7669;SDS011;3877;42.562;27.636;2023-08-08T05:56:14;5.57;;;2.10;;
7669;SDS011;3877;42.562;27.636;2023-08-08T05:58:42;3.40;;;1.50;;
7669;SDS011;3877;42.562;27.636;2023-08-08T06:01:11;1.73;;;1.50;;
7669;SDS011;3877;42.562;27.636;2023-08-08T06:03:38;1.92;;;1.70;;
7669;SDS011;3877;42.562;27.636;2023-08-08T06:06:05;6.30;;;1.70;;
7669;SDS011;3877;42.562;27.636;2023-08-08T06:08:32;1.48;;;1.38;;
7669;SDS011;3877;42.562;27.636;2023-08-08T06:11:00;5.93;;;2.10;;
7669;SDS011;3877;42.562;27.636;2023-08-08T06:13:27;1.60;;;1.50;;
7669;SDS011;3877;42.562;27.636;2023-08-08T06:15:54;4.05;;;1.80;;
7669;SDS011;3877;42.562;27.636;2023-08-08T06:18:24;4.22;;;1.90;;
7669;SDS011;3877;42.562;27.636;2023-08-08T06:20:51;4.00;;;2.25;;
7669;SDS011;3877;42.562;27.636;2023-08-08T06:23:19;2.67;;;1.58;;
7669;SDS011;3877;42.562;27.636;2023-08-08T06:25:46;3.15;;;2.25;;
7669;SDS011;3877;42.562;27.636;2023-08-08T06:28:13;4.95;;;2.00;;
7669;SDS011;3877;42.562;27.636;2023-08-08T06:30:41;2.42;;;1.52;;
7669;SDS011;3877;42.562;27.636;2023-08-08T06:33:08;2.50;;;1.90;;
7669;SDS011;3877;42.562;27.636;2023-08-08T06:35:37;3.53;;;1.77;;
7669;SDS011;3877;42.562;27.636;2023-08-08T06:38:05;1.67;;;1.58;;
7669;SDS011;3877;42.562;27.636;2023-08-08T06:40:34;1.88;;;1.50;;
7669;SDS011;3877;42.562;27.636;2023-08-08T06:43:01;4.18;;;1.63;;
7669;SDS011;3877;42.562;27.636;2023-08-08T06:45:28;1.80;;;1.33;;
7669;SDS011;3877;42.562;27.636;2023-08-08T06:47:56;1.98;;;1.55;;
7669;SDS011;3877;42.562;27.636;2023-08-08T06:50:23;2.70;;;1.50;;
7669;SDS011;3877;42.562;27.636;2023-08-08T06:52:52;4.32;;;1.90;;
7669;SDS011;3877;42.562;27.636;2023-08-08T06:55:20;4.10;;;1.83;;
7669;SDS011;3877;42.562;27.636;2023-08-08T06:57:47;4.80;;;1.95;;
7669;SDS011;3877;42.562;27.636;2023-08-08T07:00:14;1.67;;;1.50;;
7669;SDS011;3877;42.562;27.636;2023-08-08T07:02:42;2.60;;;1.17;;
7669;SDS011;3877;42.562;27.636;2023-08-08T07:05:09;1.92;;;1.40;;
7669;SDS011;3877;42.562;27.636;2023-08-08T07:07:36;3.90;;;1.67;;
7669;SDS011;3877;42.562;27.636;2023-08-08T07:10:06;5.50;;;2.00;;
7669;SDS011;3877;42.562;27.636;2023-08-08T07:12:39;2.42;;;1.60;;
7669;SDS011;3877;42.562;27.636;2023-08-08T07:15:06;2.28;;;1.80;;
7669;SDS011;3877;42.562;27.636;2023-08-08T07:17:34;1.80;;;1.60;;
7669;SDS011;3877;42.562;27.636;2023-08-08T07:20:02;9.27;;;1.70;;
7669;SDS011;3877;42.562;27.636;2023-08-08T07:22:31;2.08;;;1.58;;
7669;SDS011;3877;42.562;27.636;2023-08-08T07:24:58;11.57;;;1.73;;
7669;SDS011;3877;42.562;27.636;2023-08-08T07:27:27;6.55;;;1.50;;
7669;SDS011;3877;42.562;27.636;2023-08-08T07:29:54;2.05;;;1.40;;
7669;SDS011;3877;42.562;27.636;2023-08-08T07:32:22;4.88;;;1.20;;
7669;SDS011;3877;42.562;27.636;2023-08-08T07:34:52;9.20;;;1.20;;
7669;SDS011;3877;42.562;27.636;2023-08-08T07:37:20;5.72;;;1.33;;
7669;SDS011;3877;42.562;27.636;2023-08-08T07:39:49;4.57;;;1.50;;
7669;SDS011;3877;42.562;27.636;2023-08-08T07:42:17;7.35;;;1.55;;
7669;SDS011;3877;42.562;27.636;2023-08-08T07:44:46;1.73;;;1.25;;
7669;SDS011;3877;42.562;27.636;2023-08-08T07:47:13;8.65;;;2.42;;
7669;SDS011;3877;42.562;27.636;2023-08-08T07:49:40;2.58;;;1.42;;
7669;SDS011;3877;42.562;27.636;2023-08-08T07:52:08;4.38;;;1.60;;
7669;SDS011;3877;42.562;27.636;2023-08-08T07:54:35;3.58;;;1.88;;
7669;SDS011;3877;42.562;27.636;2023-08-08T07:57:02;5.45;;;1.90;;
7669;SDS011;3877;42.562;27.636;2023-08-08T07:59:30;1.80;;;1.58;;
7669;SDS011;3877;42.562;27.636;2023-08-08T08:01:59;2.75;;;1.98;;
7669;SDS011;3877;42.562;27.636;2023-08-08T08:04:26;3.47;;;1.63;;
7669;SDS011;3877;42.562;27.636;2023-08-08T08:06:54;2.78;;;1.58;;
7669;SDS011;3877;42.562;27.636;2023-08-08T08:09:21;4.50;;;2.30;;
7669;SDS011;3877;42.562;27.636;2023-08-08T08:11:50;3.33;;;2.00;;
7669;SDS011;3877;42.562;27.636;2023-08-08T08:14:17;7.03;;;1.70;;
7669;SDS011;3877;42.562;27.636;2023-08-08T08:16:46;5.13;;;2.05;;
7669;SDS011;3877;42.562;27.636;2023-08-08T08:19:15;3.85;;;1.58;;
7669;SDS011;3877;42.562;27.636;2023-08-08T08:21:42;2.85;;;2.00;;
7669;SDS011;3877;42.562;27.636;2023-08-08T08:24:09;4.22;;;1.80;;
7669;SDS011;3877;42.562;27.636;2023-08-08T08:26:37;4.20;;;2.47;;
7669;SDS011;3877;42.562;27.636;2023-08-08T08:29:04;3.70;;;1.95;;
7669;SDS011;3877;42.562;27.636;2023-08-08T08:31:32;5.18;;;2.70;;
7669;SDS011;3877;42.562;27.636;2023-08-08T08:34:02;4.40;;;1.92;;
7669;SDS011;3877;42.562;27.636;2023-08-08T08:36:32;8.63;;;2.80;;
7669;SDS011;3877;42.562;27.636;2023-08-08T08:38:59;5.10;;;2.35;;
7669;SDS011;3877;42.562;27.636;2023-08-08T08:41:27;3.10;;;1.92;;
7669;SDS011;3877;42.562;27.636;2023-08-08T08:43:55;2.35;;;1.80;;
7669;SDS011;3877;42.562;27.636;2023-08-08T08:46:22;5.57;;;2.15;;
7669;SDS011;3877;42.562;27.636;2023-08-08T08:48:53;6.07;;;2.13;;
7669;SDS011;3877;42.562;27.636;2023-08-08T08:51:21;2.47;;;2.10;;
7669;SDS011;3877;42.562;27.636;2023-08-08T08:53:50;6.45;;;1.73;;
7669;SDS011;3877;42.562;27.636;2023-08-08T08:56:18;2.42;;;1.90;;
7669;SDS011;3877;42.562;27.636;2023-08-08T08:58:45;2.25;;;1.67;;
7669;SDS011;3877;42.562;27.636;2023-08-08T09:01:12;2.03;;;1.88;;
7669;SDS011;3877;42.562;27.636;2023-08-08T09:03:42;4.97;;;2.28;;
7669;SDS011;3877;42.562;27.636;2023-08-08T09:06:11;4.32;;;2.13;;
7669;SDS011;3877;42.562;27.636;2023-08-08T09:08:39;2.97;;;2.05;;
7669;SDS011;3877;42.562;27.636;2023-08-08T09:11:08;3.00;;;2.20;;
7669;SDS011;3877;42.562;27.636;2023-08-08T09:13:38;11.20;;;2.10;;
7669;SDS011;3877;42.562;27.636;2023-08-08T09:16:06;3.17;;;2.10;;
7669;SDS011;3877;42.562;27.636;2023-08-08T09:18:34;3.50;;;2.10;;
7669;SDS011;3877;42.562;27.636;2023-08-08T09:21:03;2.60;;;1.90;;
7669;SDS011;3877;42.562;27.636;2023-08-08T09:23:31;8.73;;;2.13;;
7669;SDS011;3877;42.562;27.636;2023-08-08T09:25:58;4.03;;;1.73;;
7669;SDS011;3877;42.562;27.636;2023-08-08T09:28:27;2.22;;;1.90;;
7669;SDS011;3877;42.562;27.636;2023-08-08T09:30:54;7.18;;;2.22;;
7669;SDS011;3877;42.562;27.636;2023-08-08T09:33:22;5.15;;;1.85;;
7669;SDS011;3877;42.562;27.636;2023-08-08T09:35:49;4.00;;;1.88;;
7669;SDS011;3877;42.562;27.636;2023-08-08T09:38:21;6.00;;;2.30;;
7669;SDS011;3877;42.562;27.636;2023-08-08T09:40:49;3.90;;;2.00;;
7669;SDS011;3877;42.562;27.636;2023-08-08T09:43:17;2.17;;;1.98;;
7669;SDS011;3877;42.562;27.636;2023-08-08T09:45:47;5.20;;;2.15;;
7669;SDS011;3877;42.562;27.636;2023-08-08T09:48:14;6.40;;;2.17;;
7669;SDS011;3877;42.562;27.636;2023-08-08T09:50:44;5.55;;;3.03;;
7669;SDS011;3877;42.562;27.636;2023-08-08T09:53:12;3.15;;;1.83;;
7669;SDS011;3877;42.562;27.636;2023-08-08T09:55:41;2.25;;;1.80;;
7669;SDS011;3877;42.562;27.636;2023-08-08T09:58:08;3.72;;;2.50;;
7669;SDS011;3877;42.562;27.636;2023-08-08T10:00:36;3.75;;;2.15;;
7669;SDS011;3877;42.562;27.636;2023-08-08T10:03:05;4.55;;;2.10;;
7669;SDS011;3877;42.562;27.636;2023-08-08T10:05:33;4.82;;;2.33;;
7669;SDS011;3877;42.562;27.636;2023-08-08T10:08:01;4.00;;;1.85;;
7669;SDS011;3877;42.562;27.636;2023-08-08T10:10:28;4.47;;;2.00;;
7669;SDS011;3877;42.562;27.636;2023-08-08T10:12:57;2.22;;;2.03;;
7669;SDS011;3877;42.562;27.636;2023-08-08T10:15:25;4.82;;;2.15;;
7669;SDS011;3877;42.562;27.636;2023-08-08T10:17:53;2.65;;;2.03;;
7669;SDS011;3877;42.562;27.636;2023-08-08T10:20:24;2.20;;;1.60;;
7669;SDS011;3877;42.562;27.636;2023-08-08T10:22:52;2.53;;;1.80;;
7669;SDS011;3877;42.562;27.636;2023-08-08T10:25:24;2.70;;;2.08;;
7669;SDS011;3877;42.562;27.636;2023-08-08T10:28:01;4.95;;;1.90;;
7669;SDS011;3877;42.562;27.636;2023-08-08T10:30:30;5.65;;;2.00;;
7669;SDS011;3877;42.562;27.636;2023-08-08T10:33:15;2.95;;;2.10;;
7669;SDS011;3877;42.562;27.636;2023-08-08T10:35:53;4.07;;;1.77;;
7669;SDS011;3877;42.562;27.636;2023-08-08T10:38:23;3.50;;;1.88;;
7669;SDS011;3877;42.562;27.636;2023-08-08T10:40:56;3.08;;;1.77;;
7669;SDS011;3877;42.562;27.636;2023-08-08T10:43:27;4.28;;;2.13;;
7669;SDS011;3877;42.562;27.636;2023-08-08T10:45:59;3.08;;;1.77;;
7669;SDS011;3877;42.562;27.636;2023-08-08T10:48:28;4.65;;;2.20;;
7669;SDS011;3877;42.562;27.636;2023-08-08T10:50:57;3.05;;;1.85;;
7669;SDS011;3877;42.562;27.636;2023-08-08T10:53:25;3.28;;;2.10;;
7669;SDS011;3877;42.562;27.636;2023-08-08T10:55:57;3.28;;;2.10;;
7669;SDS011;3877;42.562;27.636;2023-08-08T10:58:36;4.13;;;1.88;;
7669;SDS011;3877;42.562;27.636;2023-08-08T11:01:05;2.10;;;1.85;;
7669;SDS011;3877;42.562;27.636;2023-08-08T11:03:35;2.58;;;1.90;;
7669;SDS011;3877;42.562;27.636;2023-08-08T11:06:05;3.08;;;2.30;;
7669;SDS011;3877;42.562;27.636;2023-08-08T11:08:33;2.97;;;2.00;;
7669;SDS011;3877;42.562;27.636;2023-08-08T11:11:03;2.95;;;1.98;;
7669;SDS011;3877;42.562;27.636;2023-08-08T11:13:31;2.92;;;1.95;;
7669;SDS011;3877;42.562;27.636;2023-08-08T11:15:59;3.70;;;2.13;;
7669;SDS011;3877;42.562;27.636;2023-08-08T11:18:27;4.50;;;2.00;;
7669;SDS011;3877;42.562;27.636;2023-08-08T11:20:55;2.88;;;1.98;;
7669;SDS011;3877;42.562;27.636;2023-08-08T11:23:24;2.50;;;2.00;;
7669;SDS011;3877;42.562;27.636;2023-08-08T11:25:51;2.63;;;2.13;;
7669;SDS011;3877;42.562;27.636;2023-08-08T11:28:18;3.60;;;1.90;;
7669;SDS011;3877;42.562;27.636;2023-08-08T11:30:46;3.53;;;2.10;;
7669;SDS011;3877;42.562;27.636;2023-08-08T11:33:13;2.40;;;2.03;;
7669;SDS011;3877;42.562;27.636;2023-08-08T11:35:43;3.42;;;2.00;;
7669;SDS011;3877;42.562;27.636;2023-08-08T11:38:14;4.78;;;1.90;;
7669;SDS011;3877;42.562;27.636;2023-08-08T11:40:43;2.60;;;2.40;;
7669;SDS011;3877;42.562;27.636;2023-08-08T11:43:11;2.58;;;2.28;;
7669;SDS011;3877;42.562;27.636;2023-08-08T11:45:39;2.45;;;2.10;;
7669;SDS011;3877;42.562;27.636;2023-08-08T11:48:07;2.58;;;2.30;;
7669;SDS011;3877;42.562;27.636;2023-08-08T11:50:36;2.75;;;1.92;;
7669;SDS011;3877;42.562;27.636;2023-08-08T11:53:04;2.63;;;1.80;;
7669;SDS011;3877;42.562;27.636;2023-08-08T11:55:32;2.88;;;2.00;;
7669;SDS011;3877;42.562;27.636;2023-08-08T11:58:02;2.28;;;1.83;;
7669;SDS011;3877;42.562;27.636;2023-08-08T12:00:30;2.22;;;2.03;;
7669;SDS011;3877;42.562;27.636;2023-08-08T12:03:00;2.80;;;2.25;;
7669;SDS011;3877;42.562;27.636;2023-08-08T12:05:29;2.10;;;1.90;;
7669;SDS011;3877;42.562;27.636;2023-08-08T12:07:58;2.10;;;1.90;;
7669;SDS011;3877;42.562;27.636;2023-08-08T12:10:26;2.55;;;1.90;;
7669;SDS011;3877;42.562;27.636;2023-08-08T12:12:54;3.22;;;2.00;;
7669;SDS011;3877;42.562;27.636;2023-08-08T12:15:27;2.35;;;1.95;;
7669;SDS011;3877;42.562;27.636;2023-08-08T12:17:55;2.40;;;1.90;;
7669;SDS011;3877;42.562;27.636;2023-08-08T12:20:26;3.75;;;2.00;;
7669;SDS011;3877;42.562;27.636;2023-08-08T12:22:54;3.35;;;2.15;;
7669;SDS011;3877;42.562;27.636;2023-08-08T12:25:21;1.95;;;1.75;;
7669;SDS011;3877;42.562;27.636;2023-08-08T12:27:49;2.42;;;2.20;;
7669;SDS011;3877;42.562;27.636;2023-08-08T12:30:17;2.60;;;1.98;;
7669;SDS011;3877;42.562;27.636;2023-08-08T12:32:45;4.13;;;2.17;;
7669;SDS011;3877;42.562;27.636;2023-08-08T12:35:13;3.72;;;2.58;;
7669;SDS011;3877;42.562;27.636;2023-08-08T12:37:41;3.90;;;2.50;;
7669;SDS011;3877;42.562;27.636;2023-08-08T12:40:09;3.85;;;2.90;;
7669;SDS011;3877;42.562;27.636;2023-08-08T12:42:37;4.85;;;2.90;;
7669;SDS011;3877;42.562;27.636;2023-08-08T12:45:05;3.92;;;2.33;;
7669;SDS011;3877;42.562;27.636;2023-08-08T12:47:32;6.00;;;3.28;;
7669;SDS011;3877;42.562;27.636;2023-08-08T12:50:03;4.47;;;3.05;;
7669;SDS011;3877;42.562;27.636;2023-08-08T12:52:31;4.85;;;3.20;;
7669;SDS011;3877;42.562;27.636;2023-08-08T12:54:58;5.93;;;3.40;;
7669;SDS011;3877;42.562;27.636;2023-08-08T12:57:25;4.88;;;2.60;;
7669;SDS011;3877;42.562;27.636;2023-08-08T12:59:52;4.05;;;2.30;;
7669;SDS011;3877;42.562;27.636;2023-08-08T13:02:20;3.53;;;2.22;;
7669;SDS011;3877;42.562;27.636;2023-08-08T13:04:47;2.55;;;2.10;;
7669;SDS011;3877;42.562;27.636;2023-08-08T13:07:16;3.40;;;2.40;;
7669;SDS011;3877;42.562;27.636;2023-08-08T13:09:43;3.10;;;2.25;;
7669;SDS011;3877;42.562;27.636;2023-08-08T13:12:11;3.38;;;2.72;;
7669;SDS011;3877;42.562;27.636;2023-08-08T13:14:38;2.78;;;2.30;;
7669;SDS011;3877;42.562;27.636;2023-08-08T13:17:05;4.78;;;3.78;;
7669;SDS011;3877;42.562;27.636;2023-08-08T13:19:32;3.83;;;2.10;;
7669;SDS011;3877;42.562;27.636;2023-08-08T13:22:00;2.55;;;2.10;;
7669;SDS011;3877;42.562;27.636;2023-08-08T13:24:29;3.45;;;2.03;;
7669;SDS011;3877;42.562;27.636;2023-08-08T13:26:56;2.35;;;2.15;;
7669;SDS011;3877;42.562;27.636;2023-08-08T13:29:24;3.28;;;2.00;;
7669;SDS011;3877;42.562;27.636;2023-08-08T13:31:51;2.45;;;1.95;;
7669;SDS011;3877;42.562;27.636;2023-08-08T13:34:19;2.00;;;1.80;;
7669;SDS011;3877;42.562;27.636;2023-08-08T13:36:46;2.70;;;1.83;;
7669;SDS011;3877;42.562;27.636;2023-08-08T13:39:13;3.35;;;1.90;;
7669;SDS011;3877;42.562;27.636;2023-08-08T13:41:42;3.05;;;1.95;;
7669;SDS011;3877;42.562;27.636;2023-08-08T13:44:09;2.30;;;1.90;;
7669;SDS011;3877;42.562;27.636;2023-08-08T13:46:37;2.15;;;1.80;;
7669;SDS011;3877;42.562;27.636;2023-08-08T13:49:04;1.77;;;1.65;;
7669;SDS011;3877;42.562;27.636;2023-08-08T13:51:31;2.10;;;1.90;;
7669;SDS011;3877;42.562;27.636;2023-08-08T13:53:58;2.22;;;1.83;;
7669;SDS011;3877;42.562;27.636;2023-08-08T13:56:26;2.92;;;1.80;;
7669;SDS011;3877;42.562;27.636;2023-08-08T13:58:55;6.55;;;1.50;;
7669;SDS011;3877;42.562;27.636;2023-08-08T14:01:22;2.65;;;1.80;;
7669;SDS011;3877;42.562;27.636;2023-08-08T14:03:50;2.00;;;1.80;;
7669;SDS011;3877;42.562;27.636;2023-08-08T14:06:18;4.65;;;1.70;;
7669;SDS011;3877;42.562;27.636;2023-08-08T14:08:45;2.42;;;1.80;;
7669;SDS011;3877;42.562;27.636;2023-08-08T14:11:13;2.00;;;1.80;;
7669;SDS011;3877;42.562;27.636;2023-08-08T14:13:40;1.85;;;1.67;;
7669;SDS011;3877;42.562;27.636;2023-08-08T14:16:09;1.73;;;1.63;;
7669;SDS011;3877;42.562;27.636;2023-08-08T14:18:36;1.95;;;1.77;;
7669;SDS011;3877;42.562;27.636;2023-08-08T14:21:03;2.45;;;2.00;;
7669;SDS011;3877;42.562;27.636;2023-08-08T14:23:30;2.00;;;1.90;;
7669;SDS011;3877;42.562;27.636;2023-08-08T14:25:58;3.80;;;1.98;;
7669;SDS011;3877;42.562;27.636;2023-08-08T14:28:25;3.10;;;2.13;;
7669;SDS011;3877;42.562;27.636;2023-08-08T14:30:52;2.47;;;1.92;;
7669;SDS011;3877;42.562;27.636;2023-08-08T14:33:21;6.43;;;2.33;;
7669;SDS011;3877;42.562;27.636;2023-08-08T14:35:49;2.42;;;2.10;;
7669;SDS011;3877;42.562;27.636;2023-08-08T14:38:16;2.72;;;2.20;;
7669;SDS011;3877;42.562;27.636;2023-08-08T14:40:43;3.58;;;1.83;;
7669;SDS011;3877;42.562;27.636;2023-08-08T14:43:11;2.88;;;2.25;;
7669;SDS011;3877;42.562;27.636;2023-08-08T14:45:38;5.28;;;2.75;;
7669;SDS011;3877;42.562;27.636;2023-08-08T14:48:06;6.88;;;3.00;;
7669;SDS011;3877;42.562;27.636;2023-08-08T14:50:35;3.50;;;2.47;;
7669;SDS011;3877;42.562;27.636;2023-08-08T14:53:02;2.70;;;2.33;;
7669;SDS011;3877;42.562;27.636;2023-08-08T14:55:31;3.70;;;2.40;;
7669;SDS011;3877;42.562;27.636;2023-08-08T14:57:58;2.55;;;2.30;;
7669;SDS011;3877;42.562;27.636;2023-08-08T15:00:25;4.72;;;2.50;;
7669;SDS011;3877;42.562;27.636;2023-08-08T15:02:52;3.47;;;2.20;;
7669;SDS011;3877;42.562;27.636;2023-08-08T15:05:20;7.20;;;3.22;;